MAPA DE AEROPUERTO

INFORMACIÓN METAR y TAF

METAR FOR LPPR
ADDS - METARS form results

(1611 UTC 05 December 2020)
Data provider http://aviationweather.gov/metar/data/
 
METAR text: LPPR 051600Z 35007KT 9999 FEW020 FEW022CB 09/06 Q1011
Conditions at: LPPR (PORTO/PEDRAS RUB, PT) observed 1600 UTC 05 December 2020
Temperature: 9.0°C (48°F)
Dewpoint: 6.0°C (43°F) [RH = 81%]
Pressure (altimeter): 29.85 inches Hg (1011.0 mb)
Winds: from the N (350 degrees) at 8 MPH (7 knots; 3.6 m/s)
Visibility: 6 or more miles (10+ km)
Ceiling: at least 12,000 feet AGL
Clouds: few clouds at 2000 feet AGL
few clouds at 2200 feet AGL
Weather: no significant weather observed at this time

METAR text: LPPR 051530Z 34010KT 310V010 9999 -SHRA FEW020 FEW022CB SCT040 09/06 Q1011
Conditions at: LPPR (PORTO/PEDRAS RUB, PT) observed 1530 UTC 05 December 2020
Temperature: 9.0°C (48°F)
Dewpoint: 6.0°C (43°F) [RH = 81%]
Pressure (altimeter): 29.85 inches Hg (1011.0 mb)
Winds: from the NNW (340 degrees) at 12 MPH (10 knots; 5.1 m/s)
Visibility: 6 or more miles (10+ km)
Ceiling: at least 12,000 feet AGL
Clouds: few clouds at 2000 feet AGL
few clouds at 2200 feet AGL
scattered clouds at 4000 feet AGL
Weather: -SHRA  (light rain showers)

Forecast for: LPPR (PORTO/PEDRAS RUB, PT)
Text: TAF LPPR 051100Z 0512/0612 35013KT 9999 SCT035
Forecast period: 1200 UTC 05 December 2020 to 1200 UTC 06 December 2020
Forecast type: FROM: standard forecast or significant change
Winds: from the N (350 degrees) at 15 MPH (13 knots; 6.7 m/s)
Visibility: 6 or more miles (10+ km)
Ceiling: at least 12,000 feet AGL
Clouds: scattered clouds at 3500 feet AGL
Weather: no significant weather forecast for this period
Text: TEMPO 0512/0606 5000 SHRAGS SCT012 FEW018TCU BKN030
Forecast period: 1200 UTC 05 December 2020 to 0600 UTC 06 December 2020
Forecast type: TEMPORARY: The following changes expected for less than half the time period
Visibility: 3 miles (5 km)
Ceiling: 3000 feet AGL
Clouds: scattered clouds at 1200 feet AGL
few clouds at 1800 feet AGL
broken clouds at 3000 feet AGL
Weather: SHRA SHGS  (rain showers, small hail or graupel showers)
Text: TEMPO 0606/0609 18008KT 5000 DZ BR SCT004 BKN012
Forecast period: 0600 to 0900 UTC 06 December 2020
Forecast type: TEMPORARY: The following changes expected for less than half the time period
Winds: from the S (180 degrees) at 9 MPH (8 knots; 4.1 m/s)
Visibility: 3 miles (5 km)
Ceiling: 1200 feet AGL
Clouds: scattered clouds at 400 feet AGL
broken clouds at 1200 feet AGL
Weather: DZ BR  (moderate drizzle, mist)